sensor_id;sensor_type;location;lat;lon;timestamp;pressure;altitude;pressure_sealevel;temperature;humidity
56420;BME280;42323;52.170;7.538;2022-11-15T00:00:56;100538.38;;;8.05;77.00
56420;BME280;42323;52.170;7.538;2022-11-15T00:03:25;100510.00;;;7.86;75.90
56420;BME280;42323;52.170;7.538;2022-11-15T00:05:52;100520.41;;;7.94;75.74
56420;BME280;42323;52.170;7.538;2022-11-15T00:08:19;100561.88;;;8.22;76.01
56420;BME280;42323;52.170;7.538;2022-11-15T00:10:57;100553.22;;;8.21;76.65
56420;BME280;42323;52.170;7.538;2022-11-15T00:13:24;100549.16;;;8.19;76.67
56420;BME280;42323;52.170;7.538;2022-11-15T00:15:51;100560.25;;;8.29;75.96
56420;BME280;42323;52.170;7.538;2022-11-15T00:18:18;100506.25;;;7.97;76.09
56420;BME280;42323;52.170;7.538;2022-11-15T00:20:45;100554.38;;;8.27;76.01
56420;BME280;42323;52.170;7.538;2022-11-15T00:23:12;100521.41;;;8.01;76.72
56420;BME280;42323;52.170;7.538;2022-11-15T00:25:39;100537.25;;;8.16;76.00
56420;BME280;42323;52.170;7.538;2022-11-15T00:28:06;100542.94;;;8.20;76.30
56420;BME280;42323;52.170;7.538;2022-11-15T00:30:33;100537.56;;;8.21;76.50
56420;BME280;42323;52.170;7.538;2022-11-15T00:33:05;100543.63;;;8.30;76.38
56420;BME280;42323;52.170;7.538;2022-11-15T00:35:32;100536.41;;;8.24;76.92
56420;BME280;42323;52.170;7.538;2022-11-15T00:38:01;100549.47;;;8.32;76.55
56420;BME280;42323;52.170;7.538;2022-11-15T00:40:29;100520.28;;;8.20;76.93
56420;BME280;42323;52.170;7.538;2022-11-15T00:42:56;100533.66;;;8.25;76.71
56420;BME280;42323;52.170;7.538;2022-11-15T00:45:23;100549.97;;;8.36;77.17
56420;BME280;42323;52.170;7.538;2022-11-15T00:47:50;100537.22;;;8.33;76.72
56420;BME280;42323;52.170;7.538;2022-11-15T00:50:17;100520.75;;;8.24;77.46
56420;BME280;42323;52.170;7.538;2022-11-15T00:52:44;100535.28;;;8.35;76.44
56420;BME280;42323;52.170;7.538;2022-11-15T00:55:18;100528.94;;;8.29;76.51
56420;BME280;42323;52.170;7.538;2022-11-15T00:57:46;100516.53;;;8.23;76.75
56420;BME280;42323;52.170;7.538;2022-11-15T01:00:13;100537.63;;;8.38;76.78
56420;BME280;42323;52.170;7.538;2022-11-15T01:02:40;100518.81;;;8.26;77.17
56420;BME280;42323;52.170;7.538;2022-11-15T01:05:07;100522.41;;;8.25;76.80
56420;BME280;42323;52.170;7.538;2022-11-15T01:07:34;100521.75;;;8.31;76.68
56420;BME280;42323;52.170;7.538;2022-11-15T01:10:01;100488.81;;;8.14;77.32
56420;BME280;42323;52.170;7.538;2022-11-15T01:12:28;100523.72;;;8.37;76.91
56420;BME280;42323;52.170;7.538;2022-11-15T01:14:54;100516.53;;;8.31;77.22
56420;BME280;42323;52.170;7.538;2022-11-15T01:17:21;100495.00;;;8.21;77.10
56420;BME280;42323;52.170;7.538;2022-11-15T01:19:48;100503.28;;;8.33;76.75
56420;BME280;42323;52.170;7.538;2022-11-15T01:22:15;100496.63;;;8.30;77.09
56420;BME280;42323;52.170;7.538;2022-11-15T01:24:42;100495.16;;;8.27;77.16
56420;BME280;42323;52.170;7.538;2022-11-15T01:27:09;100494.34;;;8.27;77.27
56420;BME280;42323;52.170;7.538;2022-11-15T01:29:35;100470.22;;;8.17;76.75
56420;BME280;42323;52.170;7.538;2022-11-15T01:32:02;100469.88;;;8.20;77.16
56420;BME280;42323;52.170;7.538;2022-11-15T01:34:29;100446.88;;;8.07;77.36
56420;BME280;42323;52.170;7.538;2022-11-15T01:36:56;100471.34;;;8.22;76.59
56420;BME280;42323;52.170;7.538;2022-11-15T01:39:22;100488.81;;;8.30;76.69
56420;BME280;42323;52.170;7.538;2022-11-15T01:41:49;100483.09;;;8.35;77.06
56420;BME280;42323;52.170;7.538;2022-11-15T01:47:04;100461.72;;;8.15;77.47
56420;BME280;42323;52.170;7.538;2022-11-15T01:49:35;100484.72;;;8.36;76.78
56420;BME280;42323;52.170;7.538;2022-11-15T01:52:07;100444.13;;;8.17;77.50
56420;BME280;42323;52.170;7.538;2022-11-15T01:54:35;100440.34;;;8.11;77.01
56420;BME280;42323;52.170;7.538;2022-11-15T01:57:07;100462.03;;;8.36;76.76
56420;BME280;42323;52.170;7.538;2022-11-15T01:59:35;100444.94;;;8.25;77.50
56420;BME280;42323;52.170;7.538;2022-11-15T02:02:06;100411.34;;;8.06;77.41
56420;BME280;42323;52.170;7.538;2022-11-15T02:04:40;100468.25;;;8.43;77.09
56420;BME280;42323;52.170;7.538;2022-11-15T02:07:09;100435.94;;;8.20;77.80
56420;BME280;42323;52.170;7.538;2022-11-15T02:09:38;100475.41;;;8.41;77.84
56420;BME280;42323;52.170;7.538;2022-11-15T02:12:07;100471.84;;;8.42;77.51
56420;BME280;42323;52.170;7.538;2022-11-15T02:14:37;100418.03;;;8.17;77.01
56420;BME280;42323;52.170;7.538;2022-11-15T02:17:25;100422.75;;;8.21;76.84
56420;BME280;42323;52.170;7.538;2022-11-15T02:22:49;100447.69;;;8.48;77.97
56420;BME280;42323;52.170;7.538;2022-11-15T02:25:38;100341.75;;;7.82;77.21
56420;BME280;42323;52.170;7.538;2022-11-15T02:33:46;100403.47;;;8.30;77.54
56420;BME280;42323;52.170;7.538;2022-11-15T02:36:43;100446.38;;;8.52;77.21
56420;BME280;42323;52.170;7.538;2022-11-15T02:39:38;100440.84;;;8.47;78.05
56420;BME280;42323;52.170;7.538;2022-11-15T02:42:13;100448.78;;;8.54;77.71
56420;BME280;42323;52.170;7.538;2022-11-15T02:45:03;100430.72;;;8.44;77.75
56420;BME280;42323;52.170;7.538;2022-11-15T02:47:35;100436.09;;;8.51;78.13
56420;BME280;42323;52.170;7.538;2022-11-15T02:50:08;100436.75;;;8.45;78.47
56420;BME280;42323;52.170;7.538;2022-11-15T02:52:36;100406.72;;;8.33;78.79
56420;BME280;42323;52.170;7.538;2022-11-15T02:55:03;100405.44;;;8.37;78.38
56420;BME280;42323;52.170;7.538;2022-11-15T02:57:45;100430.38;;;8.56;78.70
56420;BME280;42323;52.170;7.538;2022-11-15T03:00:19;100416.97;;;8.50;78.68
56420;BME280;42323;52.170;7.538;2022-11-15T03:03:28;100439.31;;;8.61;79.00
56420;BME280;42323;52.170;7.538;2022-11-15T03:11:13;100411.13;;;8.48;78.65
56420;BME280;42323;52.170;7.538;2022-11-15T03:16:22;100436.53;;;8.63;79.41
56420;BME280;42323;52.170;7.538;2022-11-15T03:18:57;100413.06;;;8.54;79.74
56420;BME280;42323;52.170;7.538;2022-11-15T03:21:27;100397.75;;;8.43;79.89
56420;BME280;42323;52.170;7.538;2022-11-15T03:23:56;100432.97;;;8.64;79.27
56420;BME280;42323;52.170;7.538;2022-11-15T03:26:28;100405.91;;;8.48;79.56
56420;BME280;42323;52.170;7.538;2022-11-15T03:28:59;100443.06;;;8.67;80.43
56420;BME280;42323;52.170;7.538;2022-11-15T03:31:30;100432.97;;;8.64;79.78
56420;BME280;42323;52.170;7.538;2022-11-15T03:34:27;100427.56;;;8.65;79.88
56420;BME280;42323;52.170;7.538;2022-11-15T03:36:56;100397.25;;;8.48;79.84
56420;BME280;42323;52.170;7.538;2022-11-15T03:39:24;100430.28;;;8.72;80.52
56420;BME280;42323;52.170;7.538;2022-11-15T03:44:58;100430.97;;;8.74;80.73
56420;BME280;42323;52.170;7.538;2022-11-15T03:47:38;100435.19;;;8.75;81.07
56420;BME280;42323;52.170;7.538;2022-11-15T03:50:14;100427.53;;;8.73;80.89
56420;BME280;42323;52.170;7.538;2022-11-15T03:52:42;100415.78;;;8.69;80.44
56420;BME280;42323;52.170;7.538;2022-11-15T03:55:16;100442.81;;;8.85;80.90
56420;BME280;42323;52.170;7.538;2022-11-15T03:57:44;100397.53;;;8.61;80.65
56420;BME280;42323;52.170;7.538;2022-11-15T04:00:11;100431.56;;;8.84;81.04
56420;BME280;42323;52.170;7.538;2022-11-15T04:02:38;100422.91;;;8.84;81.39
56420;BME280;42323;52.170;7.538;2022-11-15T04:05:05;100419.31;;;8.85;81.76
56420;BME280;42323;52.170;7.538;2022-11-15T04:07:32;100391.13;;;8.72;81.46
56420;BME280;42323;52.170;7.538;2022-11-15T04:09:59;100421.75;;;8.94;81.60
56420;BME280;42323;52.170;7.538;2022-11-15T04:12:34;100389.78;;;8.76;81.24
56420;BME280;42323;52.170;7.538;2022-11-15T04:15:05;81009.63;;;8.95;81.77
56420;BME280;42323;52.170;7.538;2022-11-15T04:20:24;100405.94;;;8.79;82.24
56420;BME280;42323;52.170;7.538;2022-11-15T04:23:13;100399.25;;;8.85;81.70
56420;BME280;42323;52.170;7.538;2022-11-15T04:26:03;100429.53;;;9.02;82.56
56420;BME280;42323;52.170;7.538;2022-11-15T04:28:30;100429.53;;;9.02;82.56
56420;BME280;42323;52.170;7.538;2022-11-15T04:30:57;100420.56;;;8.97;81.96
56420;BME280;42323;52.170;7.538;2022-11-15T04:33:24;100431.78;;;9.05;82.18
56420;BME280;42323;52.170;7.538;2022-11-15T04:35:50;100410.78;;;8.99;82.92
56420;BME280;42323;52.170;7.538;2022-11-15T04:38:36;100408.78;;;9.01;82.47
56420;BME280;42323;52.170;7.538;2022-11-15T04:41:03;100413.34;;;9.07;82.28
56420;BME280;42323;52.170;7.538;2022-11-15T04:43:30;100422.97;;;9.07;82.33
56420;BME280;42323;52.170;7.538;2022-11-15T04:45:57;100421.34;;;9.05;82.96
56420;BME280;42323;52.170;7.538;2022-11-15T04:48:24;100395.75;;;8.93;82.75
56420;BME280;42323;52.170;7.538;2022-11-15T04:50:50;100385.84;;;8.80;83.18
56420;BME280;42323;52.170;7.538;2022-11-15T04:53:17;100413.69;;;9.04;82.46
56420;BME280;42323;52.170;7.538;2022-11-15T04:55:46;100417.72;;;9.07;83.58
56420;BME280;42323;52.170;7.538;2022-11-15T04:58:13;100431.53;;;9.23;82.34
56420;BME280;42323;52.170;7.538;2022-11-15T05:00:39;100415.03;;;9.23;82.95
56420;BME280;42323;52.170;7.538;2022-11-15T05:03:08;100402.66;;;9.17;82.90
56420;BME280;42323;52.170;7.538;2022-11-15T05:05:55;100414.69;;;9.26;83.05
56420;BME280;42323;52.170;7.538;2022-11-15T05:08:25;100414.03;;;9.24;83.71
56420;BME280;42323;52.170;7.538;2022-11-15T05:10:52;100386.34;;;9.15;84.25
56420;BME280;42323;52.170;7.538;2022-11-15T05:13:19;100378.19;;;9.10;83.86
56420;BME280;42323;52.170;7.538;2022-11-15T05:15:47;100424.06;;;9.43;83.84
56420;BME280;42323;52.170;7.538;2022-11-15T05:18:13;100393.44;;;9.29;84.23
56420;BME280;42323;52.170;7.538;2022-11-15T05:20:46;100395.03;;;9.38;84.42
56420;BME280;42323;52.170;7.538;2022-11-15T05:23:12;100383.50;;;9.24;84.24
56420;BME280;42323;52.170;7.538;2022-11-15T05:25:39;100410.47;;;9.48;84.56
56420;BME280;42323;52.170;7.538;2022-11-15T05:28:06;100401.53;;;9.42;84.66
56420;BME280;42323;52.170;7.538;2022-11-15T05:30:33;100391.41;;;9.39;84.51
56420;BME280;42323;52.170;7.538;2022-11-15T05:33:00;100393.31;;;9.45;84.68
56420;BME280;42323;52.170;7.538;2022-11-15T05:35:35;100372.16;;;9.32;84.87
56420;BME280;42323;52.170;7.538;2022-11-15T05:38:05;100407.63;;;9.58;85.19
56420;BME280;42323;52.170;7.538;2022-11-15T05:40:32;100404.19;;;9.57;84.90
56420;BME280;42323;52.170;7.538;2022-11-15T05:43:01;100397.16;;;9.58;85.12
56420;BME280;42323;52.170;7.538;2022-11-15T05:45:28;100386.53;;;9.59;84.96
56420;BME280;42323;52.170;7.538;2022-11-15T05:47:56;100401.97;;;9.69;85.29
56420;BME280;42323;52.170;7.538;2022-11-15T05:50:25;100371.66;;;9.60;85.36
56420;BME280;42323;52.170;7.538;2022-11-15T05:52:54;100398.03;;;9.73;85.19
56420;BME280;42323;52.170;7.538;2022-11-15T05:55:26;100368.03;;;9.61;85.64
56420;BME280;42323;52.170;7.538;2022-11-15T05:57:53;100369.84;;;9.60;85.46
56420;BME280;42323;52.170;7.538;2022-11-15T06:00:19;100387.72;;;9.71;85.63
56420;BME280;42323;52.170;7.538;2022-11-15T06:02:47;100376.16;;;9.66;85.54
56420;BME280;42323;52.170;7.538;2022-11-15T06:05:14;100368.31;;;9.66;85.65
56420;BME280;42323;52.170;7.538;2022-11-15T06:07:41;100362.00;;;9.60;85.99
56420;BME280;42323;52.170;7.538;2022-11-15T06:10:08;100393.69;;;9.80;85.65
56420;BME280;42323;52.170;7.538;2022-11-15T06:12:38;100398.94;;;9.80;86.07
56420;BME280;42323;52.170;7.538;2022-11-15T06:15:05;100391.47;;;9.77;85.73
56420;BME280;42323;52.170;7.538;2022-11-15T06:17:32;100386.84;;;9.79;86.10
56420;BME280;42323;52.170;7.538;2022-11-15T06:19:58;100381.34;;;9.74;86.50
56420;BME280;42323;52.170;7.538;2022-11-15T06:22:25;100395.16;;;9.83;85.97
56420;BME280;42323;52.170;7.538;2022-11-15T06:24:52;100397.72;;;9.91;86.60
56420;BME280;42323;52.170;7.538;2022-11-15T06:27:18;100394.28;;;9.90;86.25
56420;BME280;42323;52.170;7.538;2022-11-15T06:29:45;100387.78;;;9.86;86.36
56420;BME280;42323;52.170;7.538;2022-11-15T06:32:12;100371.69;;;9.74;86.28
56420;BME280;42323;52.170;7.538;2022-11-15T06:34:39;100383.22;;;9.80;86.39
56420;BME280;42323;52.170;7.538;2022-11-15T06:37:06;100391.38;;;9.85;86.88
56420;BME280;42323;52.170;7.538;2022-11-15T06:39:33;100414.16;;;9.99;86.55
56420;BME280;42323;52.170;7.538;2022-11-15T06:42:00;100384.88;;;9.81;86.11
56420;BME280;42323;52.170;7.538;2022-11-15T06:44:26;100414.34;;;9.98;86.44
56420;BME280;42323;52.170;7.538;2022-11-15T06:46:53;100386.03;;;9.78;86.62
56420;BME280;42323;52.170;7.538;2022-11-15T06:49:24;100397.97;;;9.81;86.84
56420;BME280;42323;52.170;7.538;2022-11-15T06:51:50;100415.69;;;9.94;87.42
56420;BME280;42323;52.170;7.538;2022-11-15T06:54:17;100413.06;;;9.94;87.01
56420;BME280;42323;52.170;7.538;2022-11-15T06:56:44;100412.69;;;9.97;86.97
56420;BME280;42323;52.170;7.538;2022-11-15T06:59:11;100427.97;;;10.08;87.49
56420;BME280;42323;52.170;7.538;2022-11-15T07:01:38;100415.44;;;10.03;87.15
56420;BME280;42323;52.170;7.538;2022-11-15T07:04:04;100411.53;;;9.99;87.24
56420;BME280;42323;52.170;7.538;2022-11-15T07:06:31;100414.50;;;9.96;87.35
56420;BME280;42323;52.170;7.538;2022-11-15T07:08:59;100394.34;;;9.82;87.55
56420;BME280;42323;52.170;7.538;2022-11-15T07:11:33;100425.16;;;9.95;88.06
56420;BME280;42323;52.170;7.538;2022-11-15T07:14:05;100396.03;;;9.75;88.13
56420;BME280;42323;52.170;7.538;2022-11-15T07:16:32;100211.66;;;8.58;88.44
56420;BME280;42323;52.170;7.538;2022-11-15T07:19:00;100430.09;;;9.90;88.57
56420;BME280;42323;52.170;7.538;2022-11-15T07:21:26;100303.34;;;9.17;88.56
56420;BME280;42323;52.170;7.538;2022-11-15T07:23:53;100421.13;;;9.84;88.50
56420;BME280;42323;52.170;7.538;2022-11-15T07:26:21;100422.94;;;9.84;88.98
56420;BME280;42323;52.170;7.538;2022-11-15T07:28:48;100443.94;;;9.98;89.38
56420;BME280;42323;52.170;7.538;2022-11-15T07:31:14;100424.41;;;9.86;89.03
56420;BME280;42323;52.170;7.538;2022-11-15T07:33:41;100431.53;;;9.92;89.35
56420;BME280;42323;52.170;7.538;2022-11-15T07:36:08;100426.84;;;9.88;89.44
56420;BME280;42323;52.170;7.538;2022-11-15T07:38:35;100427.66;;;9.88;90.13
56420;BME280;42323;52.170;7.538;2022-11-15T07:41:08;100457.94;;;10.05;89.88
56420;BME280;42323;52.170;7.538;2022-11-15T07:43:35;100454.97;;;10.09;89.97
56420;BME280;42323;52.170;7.538;2022-11-15T07:46:06;100456.59;;;10.10;89.97
56420;BME280;42323;52.170;7.538;2022-11-15T07:48:37;100434.09;;;10.00;89.84
56420;BME280;42323;52.170;7.538;2022-11-15T07:51:14;100445.69;;;10.06;90.04
56420;BME280;42323;52.170;7.538;2022-11-15T08:01:10;100393.53;;;9.82;89.83
56420;BME280;42323;52.170;7.538;2022-11-15T08:03:37;100434.69;;;10.11;90.32
56420;BME280;42323;52.170;7.538;2022-11-15T08:06:04;100422.75;;;10.08;90.06
56420;BME280;42323;52.170;7.538;2022-11-15T08:08:31;100398.34;;;9.93;90.42
56420;BME280;42323;52.170;7.538;2022-11-15T08:10:58;100456.22;;;10.36;90.33
56420;BME280;42323;52.170;7.538;2022-11-15T08:13:25;100419.25;;;10.16;90.38
56420;BME280;42323;52.170;7.538;2022-11-15T08:15:57;100437.06;;;10.35;90.62
56420;BME280;42323;52.170;7.538;2022-11-15T08:18:24;100395.03;;;10.14;90.24
56420;BME280;42323;52.170;7.538;2022-11-15T08:20:51;100407.72;;;10.25;90.50
56420;BME280;42323;52.170;7.538;2022-11-15T08:23:18;100396.94;;;10.20;90.60
56420;BME280;42323;52.170;7.538;2022-11-15T08:25:45;100370.75;;;10.05;90.21
56420;BME280;42323;52.170;7.538;2022-11-15T08:28:11;100450.13;;;10.58;90.90
56420;BME280;42323;52.170;7.538;2022-11-15T08:30:41;100433.13;;;10.54;90.34
56420;BME280;42323;52.170;7.538;2022-11-15T08:33:14;100318.66;;;9.80;90.58
56420;BME280;42323;52.170;7.538;2022-11-15T08:35:42;100445.69;;;10.59;90.96
56420;BME280;42323;52.170;7.538;2022-11-15T08:38:10;100441.63;;;10.71;90.24
56420;BME280;42323;52.170;7.538;2022-11-15T08:40:40;100435.00;;;10.75;90.44
56420;BME280;42323;52.170;7.538;2022-11-15T08:43:07;100420.53;;;10.79;90.94
56420;BME280;42323;52.170;7.538;2022-11-15T08:45:35;100434.91;;;10.98;90.59
56420;BME280;42323;52.170;7.538;2022-11-15T08:48:02;100344.88;;;10.54;89.85
56420;BME280;42323;52.170;7.538;2022-11-15T08:50:29;100356.56;;;10.73;90.02
56420;BME280;42323;52.170;7.538;2022-11-15T08:52:56;100427.94;;;11.26;89.05
56420;BME280;42323;52.170;7.538;2022-11-15T08:55:23;100342.00;;;10.86;89.79
56420;BME280;42323;52.170;7.538;2022-11-15T08:57:50;100391.19;;;11.20;89.10
56420;BME280;42323;52.170;7.538;2022-11-15T09:00:17;100392.13;;;11.34;88.66
56420;BME280;42323;52.170;7.538;2022-11-15T09:02:46;100412.53;;;11.60;88.94
56420;BME280;42323;52.170;7.538;2022-11-15T09:05:13;100378.13;;;11.48;88.04
56420;BME280;42323;52.170;7.538;2022-11-15T09:07:41;100258.56;;;10.89;87.44
56420;BME280;42323;52.170;7.538;2022-11-15T09:10:08;100427.41;;;11.95;86.73
56420;BME280;42323;52.170;7.538;2022-11-15T09:12:35;100314.56;;;11.24;86.80
56420;BME280;42323;52.170;7.538;2022-11-15T09:15:02;100373.25;;;11.66;86.75
56420;BME280;42323;52.170;7.538;2022-11-15T09:17:30;100400.41;;;11.80;86.58
56420;BME280;42323;52.170;7.538;2022-11-15T09:19:57;100418.59;;;12.03;86.38
56420;BME280;42323;52.170;7.538;2022-11-15T09:22:23;100393.47;;;11.94;84.81
56420;BME280;42323;52.170;7.538;2022-11-15T09:24:50;100415.81;;;12.11;83.88
56420;BME280;42323;52.170;7.538;2022-11-15T09:27:17;100408.53;;;12.07;83.18
56420;BME280;42323;52.170;7.538;2022-11-15T09:29:43;100396.19;;;12.07;82.51
56420;BME280;42323;52.170;7.538;2022-11-15T09:32:10;100397.06;;;12.14;82.44
56420;BME280;42323;52.170;7.538;2022-11-15T09:34:37;100357.16;;;11.97;81.52
56420;BME280;42323;52.170;7.538;2022-11-15T09:37:03;100396.34;;;12.27;80.73
56420;BME280;42323;52.170;7.538;2022-11-15T09:39:31;100366.81;;;12.25;79.90
56420;BME280;42323;52.170;7.538;2022-11-15T09:45:08;100411.38;;;12.81;78.50
56420;BME280;42323;52.170;7.538;2022-11-15T09:50:15;100369.72;;;12.78;77.09
56420;BME280;42323;52.170;7.538;2022-11-15T09:52:44;100370.91;;;12.75;77.11
56420;BME280;42323;52.170;7.538;2022-11-15T09:55:12;100412.66;;;12.98;75.17
56420;BME280;42323;52.170;7.538;2022-11-15T09:58:03;100375.03;;;12.91;74.53
56420;BME280;42323;52.170;7.538;2022-11-15T10:00:38;100360.59;;;12.80;74.35
56420;BME280;42323;52.170;7.538;2022-11-15T10:03:33;100369.78;;;13.11;73.21
56420;BME280;42323;52.170;7.538;2022-11-15T10:06:01;100409.97;;;13.60;71.96
56420;BME280;42323;52.170;7.538;2022-11-15T10:11:21;100371.28;;;13.34;71.00
56420;BME280;42323;52.170;7.538;2022-11-15T10:14:24;100399.59;;;13.25;72.03
56420;BME280;42323;52.170;7.538;2022-11-15T10:22:39;100373.44;;;12.55;73.24
56420;BME280;42323;52.170;7.538;2022-11-15T10:27:36;100400.78;;;12.68;73.12
56420;BME280;42323;52.170;7.538;2022-11-15T10:30:06;100394.94;;;12.66;72.81
56420;BME280;42323;52.170;7.538;2022-11-15T10:32:36;100365.13;;;12.45;70.49
56420;BME280;42323;52.170;7.538;2022-11-15T10:35:18;100397.97;;;12.69;69.96
56420;BME280;42323;52.170;7.538;2022-11-15T10:37:45;100380.56;;;12.62;69.78
56420;BME280;42323;52.170;7.538;2022-11-15T10:40:23;100394.13;;;12.65;69.56
56420;BME280;42323;52.170;7.538;2022-11-15T10:43:14;100331.69;;;12.33;69.69
56420;BME280;42323;52.170;7.538;2022-11-15T10:45:42;100363.41;;;12.66;70.49
56420;BME280;42323;52.170;7.538;2022-11-15T10:50:46;100370.41;;;13.20;68.66
56420;BME280;42323;52.170;7.538;2022-11-15T10:53:43;100375.56;;;13.48;67.23
56420;BME280;42323;52.170;7.538;2022-11-15T10:56:13;100343.56;;;13.58;65.84
56420;BME280;42323;52.170;7.538;2022-11-15T10:58:52;100371.19;;;15.61;60.99
56420;BME280;42323;52.170;7.538;2022-11-15T11:01:25;100350.53;;;16.75;55.34
56420;BME280;42323;52.170;7.538;2022-11-15T11:04:01;100349.09;;;15.30;58.75
56420;BME280;42323;52.170;7.538;2022-11-15T11:06:29;100356.63;;;14.95;60.97
56420;BME280;42323;52.170;7.538;2022-11-15T11:09:01;100326.09;;;15.38;60.37
56420;BME280;42323;52.170;7.538;2022-11-15T11:14:12;100342.88;;;17.92;53.48
56420;BME280;42323;52.170;7.538;2022-11-15T11:16:48;100318.56;;;18.88;50.00
56420;BME280;42323;52.170;7.538;2022-11-15T11:22:06;100328.81;;;20.19;46.96
56420;BME280;42323;52.170;7.538;2022-11-15T11:30:06;100293.09;;;20.59;45.82
56420;BME280;42323;52.170;7.538;2022-11-15T11:38:46;100310.78;;;19.48;47.10
56420;BME280;42323;52.170;7.538;2022-11-15T11:45:10;100309.50;;;20.50;45.77
56420;BME280;42323;52.170;7.538;2022-11-15T11:47:31;100280.78;;;20.79;44.33
56420;BME280;42323;52.170;7.538;2022-11-15T11:50:19;100308.50;;;21.38;43.57
56420;BME280;42323;52.170;7.538;2022-11-15T11:55:43;100294.69;;;21.93;41.98
56420;BME280;42323;52.170;7.538;2022-11-15T12:00:56;100265.38;;;21.98;40.46
56420;BME280;42323;52.170;7.538;2022-11-15T12:06:02;100256.16;;;22.32;39.05
56420;BME280;42323;52.170;7.538;2022-11-15T12:11:21;100243.72;;;23.24;35.06
56420;BME280;42323;52.170;7.538;2022-11-15T12:13:55;100271.19;;;23.60;34.72
56420;BME280;42323;52.170;7.538;2022-11-15T12:16:27;100269.63;;;23.49;33.75
56420;BME280;42323;52.170;7.538;2022-11-15T12:18:56;100259.75;;;23.14;34.16
56420;BME280;42323;52.170;7.538;2022-11-15T12:25:00;100262.44;;;23.19;34.54
56420;BME280;42323;52.170;7.538;2022-11-15T12:27:41;100248.25;;;23.39;33.83
56420;BME280;42323;52.170;7.538;2022-11-15T12:30:18;100250.59;;;23.76;33.37
56420;BME280;42323;52.170;7.538;2022-11-15T12:32:54;100234.56;;;23.71;32.35
56420;BME280;42323;52.170;7.538;2022-11-15T12:35:27;100247.59;;;23.93;31.98
56420;BME280;42323;52.170;7.538;2022-11-15T12:37:56;100237.66;;;23.98;31.67
56420;BME280;42323;52.170;7.538;2022-11-15T12:40:32;100244.44;;;23.75;32.17
56420;BME280;42323;52.170;7.538;2022-11-15T12:43:03;100240.47;;;23.47;32.14
56420;BME280;42323;52.170;7.538;2022-11-15T12:45:38;100243.69;;;22.88;33.37
56420;BME280;42323;52.170;7.538;2022-11-15T12:58:59;100242.59;;;22.53;34.22
56420;BME280;42323;52.170;7.538;2022-11-15T13:06:47;100242.84;;;23.59;32.57
56420;BME280;42323;52.170;7.538;2022-11-15T13:14:46;100230.38;;;23.24;32.15
56420;BME280;42323;52.170;7.538;2022-11-15T13:17:22;100230.34;;;23.14;32.09
56420;BME280;42323;52.170;7.538;2022-11-15T13:22:27;100225.72;;;22.22;32.99
56420;BME280;42323;52.170;7.538;2022-11-15T13:25:25;100221.84;;;20.44;35.42
56420;BME280;42323;52.170;7.538;2022-11-15T13:27:54;100216.03;;;19.03;38.56
56420;BME280;42323;52.170;7.538;2022-11-15T13:30:29;100213.22;;;18.31;40.42
56420;BME280;42323;52.170;7.538;2022-11-15T13:33:05;100203.97;;;18.34;40.81
56420;BME280;42323;52.170;7.538;2022-11-15T13:35:39;100199.34;;;19.80;37.79
56420;BME280;42323;52.170;7.538;2022-11-15T13:38:18;100190.41;;;21.00;35.76
56420;BME280;42323;52.170;7.538;2022-11-15T13:40:46;100173.44;;;21.59;34.46
56420;BME280;42323;52.170;7.538;2022-11-15T13:46:33;100190.41;;;22.00;33.28
56420;BME280;42323;52.170;7.538;2022-11-15T13:49:00;100181.50;;;21.69;33.46
56420;BME280;42323;52.170;7.538;2022-11-15T13:51:33;100175.09;;;21.75;34.05
56420;BME280;42323;52.170;7.538;2022-11-15T13:56:59;100170.56;;;21.70;33.92
56420;BME280;42323;52.170;7.538;2022-11-15T13:59:30;100161.75;;;21.17;34.80
56420;BME280;42323;52.170;7.538;2022-11-15T14:02:01;100153.69;;;20.70;35.61
56420;BME280;42323;52.170;7.538;2022-11-15T14:04:30;100139.72;;;20.25;35.88
56420;BME280;42323;52.170;7.538;2022-11-15T14:07:01;100142.63;;;19.97;37.84
56420;BME280;42323;52.170;7.538;2022-11-15T14:09:31;100149.84;;;19.58;38.21
56420;BME280;42323;52.170;7.538;2022-11-15T14:12:00;100142.75;;;19.02;39.59
56420;BME280;42323;52.170;7.538;2022-11-15T14:14:28;100139.63;;;18.72;40.25
56420;BME280;42323;52.170;7.538;2022-11-15T14:17:00;100130.78;;;18.21;41.49
56420;BME280;42323;52.170;7.538;2022-11-15T14:24:36;100106.56;;;16.96;43.83
56420;BME280;42323;52.170;7.538;2022-11-15T14:27:35;100125.06;;;16.73;44.84
56420;BME280;42323;52.170;7.538;2022-11-15T14:30:03;100111.56;;;16.51;45.54
56420;BME280;42323;52.170;7.538;2022-11-15T14:32:47;100122.47;;;16.43;45.78
56420;BME280;42323;52.170;7.538;2022-11-15T14:35:20;100126.19;;;16.23;46.20
56420;BME280;42323;52.170;7.538;2022-11-15T14:37:47;100126.56;;;15.97;46.78
56420;BME280;42323;52.170;7.538;2022-11-15T14:40:19;100118.19;;;15.70;47.73
56420;BME280;42323;52.170;7.538;2022-11-15T14:42:49;100123.22;;;15.53;47.67
56420;BME280;42323;52.170;7.538;2022-11-15T14:45:19;100117.59;;;15.31;48.74
56420;BME280;42323;52.170;7.538;2022-11-15T14:47:46;100072.53;;;14.89;48.40
56420;BME280;42323;52.170;7.538;2022-11-15T14:50:18;100114.69;;;14.96;49.31
56420;BME280;42323;52.170;7.538;2022-11-15T14:52:46;100099.53;;;14.66;49.33
56420;BME280;42323;52.170;7.538;2022-11-15T14:57:40;100117.72;;;14.49;50.36
56420;BME280;42323;52.170;7.538;2022-11-15T15:00:07;100105.72;;;14.22;50.81
56420;BME280;42323;52.170;7.538;2022-11-15T15:02:35;100120.97;;;14.13;50.82
56420;BME280;42323;52.170;7.538;2022-11-15T15:05:20;100101.44;;;13.89;51.70
56420;BME280;42323;52.170;7.538;2022-11-15T15:07:47;100092.44;;;13.65;51.81
56420;BME280;42323;52.170;7.538;2022-11-15T15:10:15;100075.13;;;13.44;51.94
56420;BME280;42323;52.170;7.538;2022-11-15T15:13:04;100098.13;;;13.55;52.13
56420;BME280;42323;52.170;7.538;2022-11-15T15:15:37;100091.72;;;13.38;52.53
56420;BME280;42323;52.170;7.538;2022-11-15T15:18:05;100069.13;;;13.11;52.74